Norddeutschland Verkehrsflughäfen

2020/06/02 09:20 EDDH 020920Z VRB03KT CAVOK 23/06 Q1020 NOSIG
2008/11/04 23:50 TAF AMD EDDH 042350Z 050007 CNL= TAF AMD EDDV 042350Z 050007 CNL
2020/06/02 06:27 TAF EDDH 020500Z 0206/0312 05004KT CAVOK BECMG 0305/0307 12006KT

2020/06/02 09:20 EDDV 020920Z 14006KT 070V210 CAVOK 22/07 Q1020 NOSIG
2008/11/04 23:50 TAF AMD TAF AMD EDDV 042350Z 050007 CNL
2020/06/02 06:27 TAF EDDV 020500Z 0206/0306 06004KT CAVOK BECMG 0206/0208 12006KT BECMG 0217/0219 VRB03KT

2020/06/02 09:20 EDDW 020920Z 13007KT 070V170 CAVOK 23/08 Q1019 NOSIG
2008/11/04 23:50 TAF AMD EDDW 042350Z 050007 CNL
2020/06/02 06:27 TAF EDDW 020500Z 0206/0306 07004KT CAVOK BECMG 0206/0208 13006KT BECMG 0216/0218 06004KT

2020/06/02 09:20 EDHL 020920Z VRB03KT CAVOK 23/07 Q1020
2020/06/02 09:30 TAF EDHL 020800Z 0209/0218 VRB03KT CAVOK TEMPO 0211/0218 05007KT
2010/02/22 14:20 METAR EDHL 221420Z 15004KT 110V180 9999 FEW039 SCT120 05/02 Q0990 RMK X

2020/06/02 09:20 EDHK 020920Z 02004KT 340V080 CAVOK 21/11 Q1020
2020/06/02 09:30 TAF TAF EDHK 020800Z 0209/0218 VRB03KT CAVOK TEMPO 0209/0218 08006KT
2013/08/11 06:39 TAF EDHK 110633Z 1106/1118 24005KT 9999 SCT030 BECMG 1106/1109 25010KT TEMPO 1106/1118 27015G25KT 4500 SHRA BKN012CB

2020/06/02 09:20 EDVE 020920Z 08007KT 010V140 CAVOK 21/05 Q1020
2020/06/02 09:30 TAF TAF EDVE 020800Z 0209/0218 13005KT CAVOK
2009/02/18 05:53 TAF TAF EDVE 180553Z 1806/1819 30003KT 9999 FEW025